KGGG/GGG METAR and TAF weather

Enter ICAO airport designator
Station Type Date Time Source
KGGG METAR 2021/01/16 01:53 UTC NOAA

KGGG 160153Z 25005KT 10SM CLR 06/M09 A2998 RMK AO2 SLP156 T00561094


Station Type Date Time Source
KGGG Decoded METAR 2021/01/16 01:53 UTC NOAA

LONGVIEW GREGG COUNTY AIRPORT , TX, United States (KGGG) 32-23N 094-43W 107M
Jan 15, 2021 - 08:53 PM EST / 2021.01.16 0153 UTC
Wind: from the WSW (250 degrees) at 6 MPH (5 KT):0
Visibility: 10 mile(s):0
Sky conditions: clear
Temperature: 42.1 F (5.6 C)
Dew Point: 15.1 F (-9.4 C)
Relative Humidity: 33%
Pressure (altimeter): 29.98 in. Hg (1015 hPa)
ob: KGGG 160153Z 25005KT 10SM CLR 06/M09 A2998 RMK AO2 SLP156 T00561094
cycle: 2

Station Type Date Time Source
KGGG TAF 2021/01/15 18:42 UTC NOAA

TAF KGGG 151740Z 1518/1618 29019G33KT P6SM SKC
FM160000 27009KT P6SM SKC

Example: see airport list